Time;durP1;ratioP1;P1;durP2;ratioP2;P2;SDS_P1;SDS_P2;PMS_P1;PMS_P2;Temp;Humidity;BMP_temperature;BMP_pressure;BME280_temperature;BME280_humidity;BME280_pressure;Samples;Min_cycle;Max_cycle;Signal;HPM_P1;HPM_P2
2023/03/25 00:00:59;;;;;;;;;;;;;;;;;;5074406;28;19928;-76
2023/03/25 00:03:25;;;;;;;;;;;;;;;;;;5073552;28;19975;-76
2023/03/25 00:05:51;;;;;;;;;;;;;;;;;;5073097;28;19986;-75
2023/03/25 00:08:17;;;;;;;;;;;;;;;;;;5074031;28;19929;-74
2023/03/25 00:10:43;;;;;;;;;;;;;;;;;;5074348;28;19967;-76
2023/03/25 00:13:12;;;;;;;;;;;;;;;;;;5073094;28;19935;-75
2023/03/25 00:15:38;;;;;;;;;;;;;;;;;;5074338;28;20412;-76
2023/03/25 00:18:04;;;;;;;;;;;;;;;;;;5073783;28;19976;-76
2023/03/25 00:20:31;;;;;;;;;;;;;;;;;;5074617;28;19925;-76
2023/03/25 00:22:57;;;;;;;;;;;;;;;;;;5073076;28;19931;-75
2023/03/25 00:25:23;;;;;;;;;;;;;;;;;;5073384;28;19924;-75
2023/03/25 00:27:49;;;;;;;;;;;;;;;;;;5074072;28;20307;-76
2023/03/25 00:30:15;;;;;;;;;;;;;;;;;;5074602;28;19931;-76
2023/03/25 00:32:44;;;;;;;;;;;;;;;;;;5073254;28;19924;-76
2023/03/25 00:35:12;;;;;;;;;;;;;;;;;;5073891;28;20377;-76
2023/03/25 00:37:38;;;;;;;;;;;;;;;;;;5073793;28;20401;-76
2023/03/25 00:40:04;;;;;;;;;;;;;;;;;;5074192;28;19967;-75
2023/03/25 00:42:30;;;;;;;;;;;;;;;;;;5073880;28;19932;-76
2023/03/25 00:44:56;;;;;;;;;;;;;;;;;;5073720;28;19924;-76
2023/03/25 00:47:23;;;;;;;;;;;;;;;;;;5072721;28;19931;-76
2023/03/25 00:49:49;;;;;;;;;;;;;;;;;;5073840;28;19929;-76
2023/03/25 00:52:15;;;;;;;;;;;;;;;;;;5074072;28;19978;-75
2023/03/25 00:54:42;;;;;;;;;;;;;;;;;;5073907;28;19924;-75
2023/03/25 00:57:08;;;;;;;;;;;;;;;;;;5073463;28;19993;-76
2023/03/25 00:59:34;;;;;;;;;;;;;;;;;;5073878;28;20365;-76
2023/03/25 01:02:01;;;;;;;;;;;;;;;;;;5072428;28;19978;-75
2023/03/25 01:04:28;;;;;;;;;;;;;;;;;;5073837;28;19931;-76
2023/03/25 01:06:54;;;;;;;;;;;;;;;;;;5073358;28;20015;-76
2023/03/25 01:09:20;;;;;;;;;;;;;;;;;;5072838;28;19960;-76
2023/03/25 01:11:46;;;;;;;;;;;;;;;;;;5073103;28;19924;-75
2023/03/25 01:14:12;;;;;;;;;;;;;;;;;;5073468;28;19924;-76
2023/03/25 01:16:38;;;;;;;;;;;;;;;;;;5072408;28;19935;-76
2023/03/25 01:19:04;;;;;;;;;;;;;;;;;;5073181;28;19985;-76
2023/03/25 01:21:33;;;;;;;;;;;;;;;;;;5073551;28;19924;-75
2023/03/25 01:23:59;;;;;;;;;;;;;;;;;;5073009;28;19964;-75
2023/03/25 01:26:25;;;;;;;;;;;;;;;;;;5073358;28;19987;-76
2023/03/25 01:28:52;;;;;;;;;;;;;;;;;;5088864;28;19942;-75
2023/03/25 01:31:18;;;;;;;;;;;;;;;;;;5088870;28;19931;-75
2023/03/25 01:33:44;;;;;;;;;;;;;;;;;;5072911;28;19924;-76
2023/03/25 01:36:11;;;;;;;;;;;;;;;;;;5072519;28;19924;-76
2023/03/25 01:38:37;;;;;;;;;;;;;;;;;;5089086;28;19931;-76
2023/03/25 01:41:03;;;;;;;;;;;;;;;;;;5072695;28;20036;-76
2023/03/25 01:43:29;;;;;;;;;;;;;;;;;;5072612;28;19936;-76
2023/03/25 01:45:56;;;;;;;;;;;;;;;;;;5072695;28;19925;-76
2023/03/25 01:48:23;;;;;;;;;;;;;;;;;;5072043;28;19947;-75
2023/03/25 01:50:50;;;;;;;;;;;;;;;;;;5072753;28;20049;-76
2023/03/25 01:53:15;;;;;;;;;;;;;;;;;;5088987;28;19929;-76
2023/03/25 01:55:42;;;;;;;;;;;;;;;;;;5072915;28;19931;-76
2023/03/25 01:58:10;;;;;;;;;;;;;;;;;;5072265;28;19925;-75
2023/03/25 02:00:36;;;;;;;;;;;;;;;;;;5072714;28;19925;-74
2023/03/25 02:03:02;;;;;;;;;;;;;;;;;;5071278;28;19931;-74
2023/03/25 02:05:28;;;;;;;;;;;;;;;;;;5072505;28;19932;-74
2023/03/25 02:07:56;;;;;;;;;;;;;;;;;;5072275;28;19970;-74
2023/03/25 02:10:22;;;;;;;;;;;;;;;;;;5088636;28;19931;-75
2023/03/25 02:12:48;;;;;;;;;;;;;;;;;;5072445;28;19931;-75
2023/03/25 02:15:14;;;;;;;;;;;;;;;;;;5072172;28;20020;-75
2023/03/25 02:17:41;;;;;;;;;;;;;;;;;;5071381;28;19967;-75
2023/03/25 02:20:07;;;;;;;;;;;;;;;;;;5072195;28;19924;-75
2023/03/25 02:22:36;;;;;;;;;;;;;;;;;;5072406;28;19978;-75
2023/03/25 02:25:03;;;;;;;;;;;;;;;;;;5072121;28;19925;-74
2023/03/25 02:27:32;;;;;;;;;;;;;;;;;;5071842;28;20281;-74
2023/03/25 02:29:58;;;;;;;;;;;;;;;;;;5072056;28;19931;-74
2023/03/25 02:32:24;;;;;;;;;;;;;;;;;;5070364;28;19924;-74
2023/03/25 02:34:50;;;;;;;;;;;;;;;;;;5072291;28;19931;-74
2023/03/25 02:37:16;;;;;;;;;;;;;;;;;;5071877;28;19932;-74
2023/03/25 02:39:42;;;;;;;;;;;;;;;;;;5071144;28;19924;-74
2023/03/25 02:42:08;;;;;;;;;;;;;;;;;;5071596;28;19931;-74
2023/03/25 02:44:34;;;;;;;;;;;;;;;;;;5072012;28;19924;-74
2023/03/25 02:47:00;;;;;;;;;;;;;;;;;;5070774;28;19929;-74
2023/03/25 02:49:26;;;;;;;;;;;;;;;;;;5071845;28;19931;-74
2023/03/25 02:51:52;;;;;;;;;;;;;;;;;;5072133;28;19947;-74
2023/03/25 02:54:18;;;;;;;;;;;;;;;;;;5071270;28;19924;-74
2023/03/25 02:56:44;;;;;;;;;;;;;;;;;;5071756;28;20296;-74
2023/03/25 02:59:13;;;;;;;;;;;;;;;;;;5071489;28;20427;-74
2023/03/25 03:01:39;;;;;;;;;;;;;;;;;;5070832;28;20389;-74
2023/03/25 03:04:05;;;;;;;;;;;;;;;;;;5071631;28;19931;-74
2023/03/25 03:06:32;;;;;;;;;;;;;;;;;;5071987;28;19924;-74
2023/03/25 03:08:59;;;;;;;;;;;;;;;;;;5072107;28;19974;-74
2023/03/25 03:11:26;;;;;;;;;;;;;;;;;;5071491;28;19928;-74
2023/03/25 03:13:52;;;;;;;;;;;;;;;;;;5071927;28;19959;-74
2023/03/25 03:16:18;;;;;;;;;;;;;;;;;;5071018;28;20396;-74
2023/03/25 03:18:45;;;;;;;;;;;;;;;;;;5071535;28;19924;-74
2023/03/25 03:21:10;;;;;;;;;;;;;;;;;;5071393;28;19928;-74
2023/03/25 03:23:36;;;;;;;;;;;;;;;;;;5071624;28;19925;-74
2023/03/25 03:26:03;;;;;;;;;;;;;;;;;;5071636;28;19924;-74
2023/03/25 03:28:29;;;;;;;;;;;;;;;;;;5071604;28;20500;-74
2023/03/25 03:30:57;;;;;;;;;;;;;;;;;;5071588;28;19924;-74
2023/03/25 03:33:24;;;;;;;;;;;;;;;;;;5070575;28;20090;-74
2023/03/25 03:35:50;;;;;;;;;;;;;;;;;;5071772;28;19977;-74
2023/03/25 03:38:16;;;;;;;;;;;;;;;;;;5071139;28;19935;-74
2023/03/25 03:40:45;;;;;;;;;;;;;;;;;;5070654;28;19924;-74
2023/03/25 03:43:11;;;;;;;;;;;;;;;;;;5070840;28;19976;-73
2023/03/25 03:45:38;;;;;;;;;;;;;;;;;;5071639;28;20069;-74
2023/03/25 03:48:04;;;;;;;;;;;;;;;;;;5070589;28;19925;-74
2023/03/25 03:50:31;;;;;;;;;;;;;;;;;;5071270;28;20063;-74
2023/03/25 03:52:58;;;;;;;;;;;;;;;;;;5071332;28;19928;-74
2023/03/25 03:55:24;;;;;;;;;;;;;;;;;;5071118;28;20335;-74
2023/03/25 03:57:50;;;;;;;;;;;;;;;;;;5071307;28;19924;-74
2023/03/25 04:00:16;;;;;;;;;;;;;;;;;;5073971;28;19971;-74
2023/03/25 04:02:42;;;;;;;;;;;;;;;;;;5074053;28;19924;-74
2023/03/25 04:05:10;;;;;;;;;;;;;;;;;;5074721;28;19924;-74
2023/03/25 04:07:37;;;;;;;;;;;;;;;;;;5075045;28;19925;-74
2023/03/25 04:10:03;;;;;;;;;;;;;;;;;;5074762;28;20399;-74
2023/03/25 04:12:29;;;;;;;;;;;;;;;;;;5074393;28;19928;-74
2023/03/25 04:14:55;;;;;;;;;;;;;;;;;;5074465;28;20373;-74
2023/03/25 04:17:21;;;;;;;;;;;;;;;;;;5073410;28;19924;-74
2023/03/25 04:19:47;;;;;;;;;;;;;;;;;;5074690;28;19924;-74
2023/03/25 04:22:13;;;;;;;;;;;;;;;;;;5074153;28;20365;-74
2023/03/25 04:24:40;;;;;;;;;;;;;;;;;;5074692;28;19936;-74
2023/03/25 04:27:08;;;;;;;;;;;;;;;;;;5074523;28;19931;-74
2023/03/25 04:29:34;;;;;;;;;;;;;;;;;;5089960;28;20382;-74
2023/03/25 04:32:00;;;;;;;;;;;;;;;;;;5072471;28;19929;-74
2023/03/25 04:34:26;;;;;;;;;;;;;;;;;;5074186;28;19924;-74
2023/03/25 04:36:52;;;;;;;;;;;;;;;;;;5074277;28;20293;-74
2023/03/25 04:39:21;;;;;;;;;;;;;;;;;;5073745;28;20454;-74
2023/03/25 04:41:47;;;;;;;;;;;;;;;;;;5072881;28;19978;-74
2023/03/25 04:44:13;;;;;;;;;;;;;;;;;;5073919;28;19936;-74
2023/03/25 04:46:40;;;;;;;;;;;;;;;;;;5073460;28;19928;-74
2023/03/25 04:49:12;;;;;;;;;;;;;;;;;;5074330;28;19924;-74
2023/03/25 04:51:40;;;;;;;;;;;;;;;;;;5074387;28;20018;-74
2023/03/25 04:54:06;;;;;;;;;;;;;;;;;;5074170;28;19931;-74
2023/03/25 04:56:32;;;;;;;;;;;;;;;;;;5073558;28;19920;-74
2023/03/25 04:58:58;;;;;;;;;;;;;;;;;;5074111;28;20015;-74
2023/03/25 05:01:29;;;;;;;;;;;;;;;;;;5073054;28;20372;-74
2023/03/25 05:03:56;;;;;;;;;;;;;;;;;;5073691;28;19928;-74
2023/03/25 05:06:22;;;;;;;;;;;;;;;;;;5073321;28;19931;-74
2023/03/25 05:08:48;;;;;;;;;;;;;;;;;;5073897;28;19924;-74
2023/03/25 05:11:14;;;;;;;;;;;;;;;;;;5072451;28;19924;-74
2023/03/25 05:13:40;;;;;;;;;;;;;;;;;;5073629;28;20430;-74
2023/03/25 05:16:06;;;;;;;;;;;;;;;;;;5073500;28;19924;-74
2023/03/25 05:18:32;;;;;;;;;;;;;;;;;;5072462;28;19924;-74
2023/03/25 05:20:59;;;;;;;;;;;;;;;;;;5073517;28;19925;-74
2023/03/25 05:23:26;;;;;;;;;;;;;;;;;;5073144;28;19925;-74
2023/03/25 05:25:52;;;;;;;;;;;;;;;;;;5073259;28;19976;-73
2023/03/25 05:28:17;;;;;;;;;;;;;;;;;;5072822;28;19924;-74
2023/03/25 05:30:44;;;;;;;;;;;;;;;;;;5073427;28;20015;-74
2023/03/25 05:33:10;;;;;;;;;;;;;;;;;;5072665;28;19925;-74
2023/03/25 05:35:36;;;;;;;;;;;;;;;;;;5072929;28;20155;-74
2023/03/25 05:38:02;;;;;;;;;;;;;;;;;;5073184;28;19932;-74
2023/03/25 05:40:28;;;;;;;;;;;;;;;;;;5071726;28;19925;-74
2023/03/25 05:42:55;;;;;;;;;;;;;;;;;;5072385;28;19978;-74
2023/03/25 05:45:20;;;;;;;;;;;;;;;;;;5072642;28;19928;-75
2023/03/25 05:47:47;;;;;;;;;;;;;;;;;;5071588;28;19932;-74
2023/03/25 05:50:16;;;;;;;;;;;;;;;;;;5073004;28;19958;-74
2023/03/25 05:52:42;;;;;;;;;;;;;;;;;;5072771;28;19925;-74
2023/03/25 05:55:08;;;;;;;;;;;;;;;;;;5072941;28;19924;-73
2023/03/25 05:57:33;;;;;;;;;;;;;;;;;;5072274;28;19978;-73
2023/03/25 05:59:59;;;;;;;;;;;;;;;;;;5072880;28;19928;-73
2023/03/25 06:02:25;;;;;;;;;;;;;;;;;;5071269;28;19931;-74
2023/03/25 06:04:51;;;;;;;;;;;;;;;;;;5072434;28;19924;-74
2023/03/25 06:07:21;;;;;;;;;;;;;;;;;;5072463;28;19998;-74
2023/03/25 06:09:47;;;;;;;;;;;;;;;;;;5072701;28;19924;-74
2023/03/25 06:12:13;;;;;;;;;;;;;;;;;;5072198;28;20273;-73
2023/03/25 06:14:41;;;;;;;;;;;;;;;;;;5072033;28;19925;-73
2023/03/25 06:17:07;;;;;;;;;;;;;;;;;;5087613;28;19924;-73
2023/03/25 06:19:37;;;;;;;;;;;;;;;;;;5072180;28;19946;-74
2023/03/25 06:22:03;;;;;;;;;;;;;;;;;;5087917;28;20356;-73
2023/03/25 06:24:29;;;;;;;;;;;;;;;;;;5072153;28;19935;-74
2023/03/25 06:26:55;;;;;;;;;;;;;;;;;;5072082;28;19924;-73
2023/03/25 06:29:21;;;;;;;;;;;;;;;;;;5071902;28;19924;-73
2023/03/25 06:31:47;;;;;;;;;;;;;;;;;;5071582;28;19924;-73
2023/03/25 06:34:13;;;;;;;;;;;;;;;;;;5072358;28;19925;-73
2023/03/25 06:36:39;;;;;;;;;;;;;;;;;;5071754;28;20520;-73
2023/03/25 06:39:05;;;;;;;;;;;;;;;;;;5072122;28;19986;-73
2023/03/25 06:41:34;;;;;;;;;;;;;;;;;;5071518;28;19979;-74
2023/03/25 06:44:00;;;;;;;;;;;;;;;;;;5087818;28;19931;-73
2023/03/25 06:46:26;;;;;;;;;;;;;;;;;;5071228;28;19948;-73
2023/03/25 06:48:52;;;;;;;;;;;;;;;;;;5071617;28;20373;-73
2023/03/25 06:51:20;;;;;;;;;;;;;;;;;;5072081;28;20294;-73
2023/03/25 06:53:46;;;;;;;;;;;;;;;;;;5072037;28;19947;-73
2023/03/25 06:56:12;;;;;;;;;;;;;;;;;;5072016;28;20380;-73
2023/03/25 06:58:40;;;;;;;;;;;;;;;;;;5071631;28;20403;-73
2023/03/25 07:01:06;;;;;;;;;;;;;;;;;;5072033;28;19947;-73
2023/03/25 07:03:32;;;;;;;;;;;;;;;;;;5086719;28;20440;-73
2023/03/25 07:05:58;;;;;;;;;;;;;;;;;;5071837;28;20014;-73
2023/03/25 07:08:24;;;;;;;;;;;;;;;;;;5071705;28;19948;-74
2023/03/25 07:10:50;;;;;;;;;;;;;;;;;;5071814;28;19924;-73
2023/03/25 07:13:16;;;;;;;;;;;;;;;;;;5071683;28;20381;-73
2023/03/25 07:15:42;;;;;;;;;;;;;;;;;;5071436;28;19932;-73
2023/03/25 07:18:08;;;;;;;;;;;;;;;;;;5070027;28;19987;-73
2023/03/25 07:20:34;;;;;;;;;;;;;;;;;;5071516;28;20354;-73
2023/03/25 07:23:00;;;;;;;;;;;;;;;;;;5071863;28;19928;-74
2023/03/25 07:25:26;;;;;;;;;;;;;;;;;;5071548;28;20042;-73
2023/03/25 07:27:52;;;;;;;;;;;;;;;;;;5071663;28;20134;-73
2023/03/25 07:30:18;;;;;;;;;;;;;;;;;;5071808;28;19924;-73
2023/03/25 07:32:44;;;;;;;;;;;;;;;;;;5070180;28;19977;-73
2023/03/25 07:35:10;;;;;;;;;;;;;;;;;;5074740;28;19931;-73
2023/03/25 07:37:36;;;;;;;;;;;;;;;;;;5075212;28;19924;-73
2023/03/25 07:40:02;;;;;;;;;;;;;;;;;;5075544;28;19925;-73
2023/03/25 07:42:28;;;;;;;;;;;;;;;;;;5074735;28;19924;-73
2023/03/25 07:44:54;;;;;;;;;;;;;;;;;;5074018;28;19932;-73
2023/03/25 07:47:20;;;;;;;;;;;;;;;;;;5074432;28;20434;-73
2023/03/25 07:49:48;;;;;;;;;;;;;;;;;;5074901;28;20047;-72
2023/03/25 07:52:15;;;;;;;;;;;;;;;;;;5075328;28;20019;-73
2023/03/25 07:54:41;;;;;;;;;;;;;;;;;;5074668;28;19970;-72
2023/03/25 07:57:07;;;;;;;;;;;;;;;;;;5075025;28;20343;-72
2023/03/25 07:59:33;;;;;;;;;;;;;;;;;;5074649;28;19983;-73
2023/03/25 08:01:59;;;;;;;;;;;;;;;;;;5074281;28;20515;-73
2023/03/25 08:04:25;;;;;;;;;;;;;;;;;;5075197;28;19925;-72
2023/03/25 08:06:51;;;;;;;;;;;;;;;;;;5074843;28;20587;-72
2023/03/25 08:09:17;;;;;;;;;;;;;;;;;;5074932;28;19960;-72
2023/03/25 08:11:43;;;;;;;;;;;;;;;;;;5074303;28;20315;-74
2023/03/25 08:14:08;;;;;;;;;;;;;;;;;;5074684;28;19946;-74
2023/03/25 08:16:35;;;;;;;;;;;;;;;;;;5073225;28;19925;-74
2023/03/25 08:19:01;;;;;;;;;;;;;;;;;;5074626;28;19931;-74
2023/03/25 08:21:27;;;;;;;;;;;;;;;;;;5074661;28;19978;-74
2023/03/25 08:23:57;;;;;;;;;;;;;;;;;;5074330;28;19981;-74
2023/03/25 08:26:23;;;;;;;;;;;;;;;;;;5074527;28;19924;-74
2023/03/25 08:28:49;;;;;;;;;;;;;;;;;;5073306;28;19977;-74
2023/03/25 08:31:15;;;;;;;;;;;;;;;;;;5074248;28;19924;-74
2023/03/25 08:33:41;;;;;;;;;;;;;;;;;;5073549;28;20383;-74
2023/03/25 08:36:09;;;;;;;;;;;;;;;;;;5074367;28;19928;-74
2023/03/25 08:38:35;;;;;;;;;;;;;;;;;;5074097;28;19947;-74
2023/03/25 08:41:01;;;;;;;;;;;;;;;;;;5074400;28;20361;-73
2023/03/25 08:43:27;;;;;;;;;;;;;;;;;;5073985;28;19971;-74
2023/03/25 08:45:53;;;;;;;;;;;;;;;;;;5073560;28;20474;-74
2023/03/25 08:48:19;;;;;;;;;;;;;;;;;;5072729;28;20290;-74
2023/03/25 08:50:45;;;;;;;;;;;;;;;;;;5073859;28;19924;-74
2023/03/25 08:53:11;;;;;;;;;;;;;;;;;;5074028;28;19932;-73
2023/03/25 08:55:37;;;;;;;;;;;;;;;;;;5073784;28;19924;-73
2023/03/25 08:58:03;;;;;;;;;;;;;;;;;;5073798;28;19972;-74
2023/03/25 09:00:29;;;;;;;;;;;;;;;;;;5073050;28;19974;-74
2023/03/25 09:02:57;;;;;;;;;;;;;;;;;;5072658;28;19967;-73
2023/03/25 09:05:23;;;;;;;;;;;;;;;;;;5089881;28;20405;-74
2023/03/25 09:07:49;;;;;;;;;;;;;;;;;;5073307;28;19929;-74
2023/03/25 09:10:15;;;;;;;;;;;;;;;;;;5073656;28;20358;-73
2023/03/25 09:12:41;;;;;;;;;;;;;;;;;;5073235;28;19959;-70
2023/03/25 09:15:07;;;;;;;;;;;;;;;;;;5073639;28;20019;-72
2023/03/25 09:17:33;;;;;;;;;;;;;;;;;;5072627;28;19931;-73
2023/03/25 09:19:59;;;;;;;;;;;;;;;;;;5072920;28;20377;-74
2023/03/25 09:22:25;;;;;;;;;;;;;;;;;;5072699;28;19932;-69
2023/03/25 09:24:51;;;;;;;;;;;;;;;;;;5072860;28;19926;-74
2023/03/25 09:27:17;;;;;;;;;;;;;;;;;;5073058;28;19929;-73
2023/03/25 09:29:43;;;;;;;;;;;;;;;;;;5072986;28;20493;-73
2023/03/25 09:32:09;;;;;;;;;;;;;;;;;;5072461;28;20296;-73
2023/03/25 09:34:37;;;;;;;;;;;;;;;;;;5073038;28;20263;-73
2023/03/25 09:37:03;;;;;;;;;;;;;;;;;;5072278;28;20369;-73
2023/03/25 09:39:29;;;;;;;;;;;;;;;;;;5072902;28;19928;-73
2023/03/25 09:41:55;;;;;;;;;;;;;;;;;;5072161;28;19924;-73
2023/03/25 09:44:21;;;;;;;;;;;;;;;;;;5072952;28;19978;-73
2023/03/25 09:46:47;;;;;;;;;;;;;;;;;;5071652;28;19925;-74
2023/03/25 09:49:13;;;;;;;;;;;;;;;;;;5072871;28;20433;-73
2023/03/25 09:51:40;;;;;;;;;;;;;;;;;;5072479;28;20381;-74
2023/03/25 09:54:06;;;;;;;;;;;;;;;;;;5072951;28;19924;-73
2023/03/25 09:56:32;;;;;;;;;;;;;;;;;;5071944;28;19924;-73
2023/03/25 09:58:58;;;;;;;;;;;;;;;;;;5072041;28;19925;-73
2023/03/25 10:01:25;;;;;;;;;;;;;;;;;;5072237;28;19925;-72
2023/03/25 10:03:51;;;;;;;;;;;;;;;;;;5072044;28;20296;-73
2023/03/25 10:06:20;;;;;;;;;;;;;;;;;;5072722;28;19924;-73
2023/03/25 10:08:46;;;;;;;;;;;;;;;;;;5072347;28;19975;-73
2023/03/25 10:11:12;;;;;;;;;;;;;;;;;;5072628;28;19929;-74
2023/03/25 10:13:38;;;;;;;;;;;;;;;;;;5072620;28;19932;-73
2023/03/25 10:16:04;;;;;;;;;;;;;;;;;;5071973;28;19924;-72
2023/03/25 10:18:32;;;;;;;;;;;;;;;;;;5071515;28;19932;-74
2023/03/25 10:21:00;;;;;;;;;;;;;;;;;;5070493;28;19931;-75
2023/03/25 10:23:26;;;;;;;;;;;;;;;;;;5072488;28;20319;-74
2023/03/25 10:25:52;;;;;;;;;;;;;;;;;;5072148;28;19925;-74
2023/03/25 10:28:18;;;;;;;;;;;;;;;;;;5072257;28;19925;-75
2023/03/25 10:30:44;;;;;;;;;;;;;;;;;;5072462;28;19924;-75
2023/03/25 10:33:10;;;;;;;;;;;;;;;;;;5071439;28;19967;-74
2023/03/25 10:35:36;;;;;;;;;;;;;;;;;;5071491;28;20373;-75
2023/03/25 10:38:02;;;;;;;;;;;;;;;;;;5071960;28;19928;-74
2023/03/25 10:40:28;;;;;;;;;;;;;;;;;;5072430;28;19990;-74
2023/03/25 10:42:56;;;;;;;;;;;;;;;;;;5071374;28;19924;-74
2023/03/25 10:45:21;;;;;;;;;;;;;;;;;;5071871;28;19924;-74
2023/03/25 10:47:50;;;;;;;;;;;;;;;;;;5070856;28;20391;-73
2023/03/25 10:50:16;;;;;;;;;;;;;;;;;;5071206;28;19947;-74
2023/03/25 10:52:42;;;;;;;;;;;;;;;;;;5071452;28;20357;-73
2023/03/25 10:55:08;;;;;;;;;;;;;;;;;;5071273;28;20165;-73
2023/03/25 10:57:34;;;;;;;;;;;;;;;;;;5071113;28;19931;-73
2023/03/25 11:00:00;;;;;;;;;;;;;;;;;;5070912;28;19935;-72
2023/03/25 11:02:26;;;;;;;;;;;;;;;;;;5069969;28;20039;-73
2023/03/25 11:04:53;;;;;;;;;;;;;;;;;;5071286;28;19967;-73
2023/03/25 11:07:18;;;;;;;;;;;;;;;;;;5085270;28;20327;-74
2023/03/25 11:09:44;;;;;;;;;;;;;;;;;;5074316;28;19987;-74
2023/03/25 11:12:10;;;;;;;;;;;;;;;;;;5075426;28;20404;-74
2023/03/25 11:14:37;;;;;;;;;;;;;;;;;;5075794;28;19925;-74
2023/03/25 11:17:04;;;;;;;;;;;;;;;;;;5090469;28;19932;-74
2023/03/25 11:19:30;;;;;;;;;;;;;;;;;;5075674;28;19928;-74
2023/03/25 11:21:56;;;;;;;;;;;;;;;;;;5075393;28;20377;-73
2023/03/25 11:24:22;;;;;;;;;;;;;;;;;;5074636;28;19951;-73
2023/03/25 11:26:48;;;;;;;;;;;;;;;;;;5074463;28;19925;-74
2023/03/25 11:29:14;;;;;;;;;;;;;;;;;;5075368;28;19933;-74
2023/03/25 11:31:40;;;;;;;;;;;;;;;;;;5074420;28;19940;-74
2023/03/25 11:34:06;;;;;;;;;;;;;;;;;;5075189;28;20399;-74
2023/03/25 11:36:32;;;;;;;;;;;;;;;;;;5075592;28;19924;-74
2023/03/25 11:38:58;;;;;;;;;;;;;;;;;;5075076;28;20007;-74
2023/03/25 11:41:24;;;;;;;;;;;;;;;;;;5074874;28;19970;-72
2023/03/25 11:43:50;;;;;;;;;;;;;;;;;;5072985;28;19932;-75
2023/03/25 11:46:16;;;;;;;;;;;;;;;;;;5074310;28;19924;-74
2023/03/25 11:48:42;;;;;;;;;;;;;;;;;;5074707;28;19924;-75
2023/03/25 11:51:08;;;;;;;;;;;;;;;;;;5073468;28;19924;-75
2023/03/25 11:53:34;;;;;;;;;;;;;;;;;;5074402;28;19924;-74
2023/03/25 11:56:00;;;;;;;;;;;;;;;;;;5074078;28;19930;-74
2023/03/25 11:58:26;;;;;;;;;;;;;;;;;;5073676;28;19924;-75
2023/03/25 12:00:52;;;;;;;;;;;;;;;;;;5074284;28;19971;-75
2023/03/25 12:03:19;;;;;;;;;;;;;;;;;;5073248;28;19929;-75
2023/03/25 12:05:45;;;;;;;;;;;;;;;;;;5074314;28;19968;-74
2023/03/25 12:08:14;;;;;;;;;;;;;;;;;;5073359;28;19932;-74
2023/03/25 12:10:40;;;;;;;;;;;;;;;;;;5074912;28;20353;-74
2023/03/25 12:13:06;;;;;;;;;;;;;;;;;;5074243;28;19924;-74
2023/03/25 12:15:32;;;;;;;;;;;;;;;;;;5074783;28;19982;-74
2023/03/25 12:17:58;;;;;;;;;;;;;;;;;;5073464;28;19928;-75
2023/03/25 12:20:24;;;;;;;;;;;;;;;;;;5072791;28;19931;-74
2023/03/25 12:22:50;;;;;;;;;;;;;;;;;;5074684;28;19932;-75
2023/03/25 12:25:16;;;;;;;;;;;;;;;;;;5074209;28;19924;-74
2023/03/25 12:27:42;;;;;;;;;;;;;;;;;;5074243;28;19964;-76
2023/03/25 12:30:08;;;;;;;;;;;;;;;;;;5074068;28;20327;-73
2023/03/25 12:32:34;;;;;;;;;;;;;;;;;;5073106;28;19925;-76
2023/03/25 12:35:00;;;;;;;;;;;;;;;;;;5074358;28;19943;-75
2023/03/25 12:37:26;;;;;;;;;;;;;;;;;;5074168;28;19924;-78
2023/03/25 12:39:52;;;;;;;;;;;;;;;;;;5074388;28;19924;-76
2023/03/25 12:42:18;;;;;;;;;;;;;;;;;;5073640;28;19924;-77
2023/03/25 12:44:44;;;;;;;;;;;;;;;;;;5074210;28;19925;-77
2023/03/25 12:47:10;;;;;;;;;;;;;;;;;;5072967;28;19929;-77
2023/03/25 12:49:36;;;;;;;;;;;;;;;;;;5074222;28;19931;-78
2023/03/25 12:52:02;;;;;;;;;;;;;;;;;;5071930;28;19924;-75
2023/03/25 12:54:28;;;;;;;;;;;;;;;;;;5072013;28;19924;-76
2023/03/25 12:56:54;;;;;;;;;;;;;;;;;;5073210;28;20266;-77
2023/03/25 12:59:20;;;;;;;;;;;;;;;;;;5072510;28;19979;-77
2023/03/25 13:01:46;;;;;;;;;;;;;;;;;;5073080;28;19928;-77
2023/03/25 13:04:12;;;;;;;;;;;;;;;;;;5073506;28;20023;-77
2023/03/25 13:06:38;;;;;;;;;;;;;;;;;;5072730;28;19929;-77
2023/03/25 13:09:04;;;;;;;;;;;;;;;;;;5073871;28;19924;-76
2023/03/25 13:11:30;;;;;;;;;;;;;;;;;;5070027;28;19924;-76
2023/03/25 13:13:56;;;;;;;;;;;;;;;;;;5072141;28;19967;-77
2023/03/25 13:16:23;;;;;;;;;;;;;;;;;;5071359;28;19986;-76
2023/03/25 13:18:49;;;;;;;;;;;;;;;;;;5088099;28;20365;-78
2023/03/25 13:21:15;;;;;;;;;;;;;;;;;;5072815;28;19924;-79
2023/03/25 13:23:41;;;;;;;;;;;;;;;;;;5073531;28;19958;-76
2023/03/25 13:26:07;;;;;;;;;;;;;;;;;;5073067;28;20023;-75
2023/03/25 13:28:37;;;;;;;;;;;;;;;;;;5073173;28;19925;-77
2023/03/25 13:31:03;;;;;;;;;;;;;;;;;;5072324;28;20010;-76
2023/03/25 13:33:29;;;;;;;;;;;;;;;;;;5071251;28;19933;-77
2023/03/25 13:35:55;;;;;;;;;;;;;;;;;;5072613;28;20285;-74
2023/03/25 13:38:21;;;;;;;;;;;;;;;;;;5072424;28;19935;-73
2023/03/25 13:40:47;;;;;;;;;;;;;;;;;;5072930;28;19931;-77
2023/03/25 13:43:13;;;;;;;;;;;;;;;;;;5071826;28;19928;-76
2023/03/25 13:45:39;;;;;;;;;;;;;;;;;;5072684;28;19990;-77
2023/03/25 13:48:05;;;;;;;;;;;;;;;;;;5071412;28;20388;-77
2023/03/25 13:50:31;;;;;;;;;;;;;;;;;;5072260;28;19924;-77
2023/03/25 13:52:57;;;;;;;;;;;;;;;;;;5072691;28;19924;-77
2023/03/25 13:55:23;;;;;;;;;;;;;;;;;;5072215;28;19924;-76
2023/03/25 13:57:49;;;;;;;;;;;;;;;;;;5072636;28;19970;-77
2023/03/25 14:00:15;;;;;;;;;;;;;;;;;;5072360;28;19932;-77
2023/03/25 14:02:41;;;;;;;;;;;;;;;;;;5071612;28;20365;-78
2023/03/25 14:05:09;;;;;;;;;;;;;;;;;;5070796;28;20020;-77
2023/03/25 14:07:35;;;;;;;;;;;;;;;;;;5072345;28;19925;-74
2023/03/25 14:10:01;;;;;;;;;;;;;;;;;;5072166;28;19937;-77
2023/03/25 14:12:28;;;;;;;;;;;;;;;;;;5071246;28;19975;-76
2023/03/25 14:14:54;;;;;;;;;;;;;;;;;;5072191;28;19931;-78
2023/03/25 14:17:21;;;;;;;;;;;;;;;;;;5070895;28;19924;-76
2023/03/25 14:19:47;;;;;;;;;;;;;;;;;;5072315;28;19924;-77
2023/03/25 14:22:13;;;;;;;;;;;;;;;;;;5072089;28;19924;-76
2023/03/25 14:24:40;;;;;;;;;;;;;;;;;;5072357;28;19931;-77
2023/03/25 14:27:06;;;;;;;;;;;;;;;;;;5071924;28;19925;-77
2023/03/25 14:29:32;;;;;;;;;;;;;;;;;;5071818;28;20108;-77
2023/03/25 14:31:58;;;;;;;;;;;;;;;;;;5087395;28;19924;-77
2023/03/25 14:34:24;;;;;;;;;;;;;;;;;;5071625;28;19924;-76
2023/03/25 14:36:50;;;;;;;;;;;;;;;;;;5072237;28;19928;-76
2023/03/25 14:39:16;;;;;;;;;;;;;;;;;;5071534;28;20487;-76
2023/03/25 14:41:42;;;;;;;;;;;;;;;;;;5070952;28;19939;-77
2023/03/25 14:44:08;;;;;;;;;;;;;;;;;;5070433;28;19970;-76
2023/03/25 14:46:34;;;;;;;;;;;;;;;;;;5070965;28;20369;-76
2023/03/25 14:49:01;;;;;;;;;;;;;;;;;;5071999;28;19928;-76
2023/03/25 14:51:30;;;;;;;;;;;;;;;;;;5087492;28;20266;-76
2023/03/25 14:53:56;;;;;;;;;;;;;;;;;;5071385;28;20464;-77
2023/03/25 14:56:22;;;;;;;;;;;;;;;;;;5071585;28;19971;-75
2023/03/25 14:58:48;;;;;;;;;;;;;;;;;;5071686;28;19924;-75
2023/03/25 15:01:13;;;;;;;;;;;;;;;;;;5071729;28;19925;-73
2023/03/25 15:03:42;;;;;;;;;;;;;;;;;;5070286;28;19954;-73
2023/03/25 15:06:08;;;;;;;;;;;;;;;;;;5072021;28;19970;-73
2023/03/25 15:08:35;;;;;;;;;;;;;;;;;;5071505;28;19948;-73
2023/03/25 15:11:01;;;;;;;;;;;;;;;;;;5071674;28;19947;-73
2023/03/25 15:13:27;;;;;;;;;;;;;;;;;;5071230;28;19924;-73
2023/03/25 15:15:53;;;;;;;;;;;;;;;;;;5071896;28;20312;-73
2023/03/25 15:18:20;;;;;;;;;;;;;;;;;;5070309;28;19990;-73
2023/03/25 15:20:46;;;;;;;;;;;;;;;;;;5071901;28;19925;-73
2023/03/25 15:23:12;;;;;;;;;;;;;;;;;;5071316;28;19926;-73
2023/03/25 15:25:38;;;;;;;;;;;;;;;;;;5071156;28;19928;-73
2023/03/25 15:28:04;;;;;;;;;;;;;;;;;;5071557;28;19924;-73
2023/03/25 15:30:30;;;;;;;;;;;;;;;;;;5070995;28;20401;-73
2023/03/25 15:32:56;;;;;;;;;;;;;;;;;;5070890;28;19931;-73
2023/03/25 15:35:22;;;;;;;;;;;;;;;;;;5071289;28;19924;-73
2023/03/25 15:37:48;;;;;;;;;;;;;;;;;;5071514;28;19925;-73
2023/03/25 15:40:14;;;;;;;;;;;;;;;;;;5071648;28;19924;-73
2023/03/25 15:42:40;;;;;;;;;;;;;;;;;;5070782;28;20108;-73
2023/03/25 15:45:06;;;;;;;;;;;;;;;;;;5071230;28;19978;-73
2023/03/25 15:47:32;;;;;;;;;;;;;;;;;;5069517;28;19971;-73
2023/03/25 15:49:58;;;;;;;;;;;;;;;;;;5071022;28;20376;-73
2023/03/25 15:52:25;;;;;;;;;;;;;;;;;;5070807;28;19949;-74
2023/03/25 15:54:50;;;;;;;;;;;;;;;;;;5071472;28;20553;-73
2023/03/25 15:57:17;;;;;;;;;;;;;;;;;;5074939;28;19946;-73
2023/03/25 15:59:43;;;;;;;;;;;;;;;;;;5074721;28;19925;-74
2023/03/25 16:02:09;;;;;;;;;;;;;;;;;;5074113;28;20055;-73
2023/03/25 16:04:35;;;;;;;;;;;;;;;;;;5074092;28;20073;-73
2023/03/25 16:07:01;;;;;;;;;;;;;;;;;;5074857;28;19934;-73
2023/03/25 16:09:27;;;;;;;;;;;;;;;;;;5074633;28;20010;-73
2023/03/25 16:11:53;;;;;;;;;;;;;;;;;;5074731;28;19932;-73
2023/03/25 16:14:18;;;;;;;;;;;;;;;;;;5074563;28;20499;-73
2023/03/25 16:16:44;;;;;;;;;;;;;;;;;;5073488;28;20158;-73
2023/03/25 16:19:11;;;;;;;;;;;;;;;;;;5074630;28;19964;-73
2023/03/25 16:21:37;;;;;;;;;;;;;;;;;;5073951;28;20280;-74
2023/03/25 16:24:03;;;;;;;;;;;;;;;;;;5073924;28;20016;-74
2023/03/25 16:26:29;;;;;;;;;;;;;;;;;;5073421;28;20124;-74
2023/03/25 16:28:55;;;;;;;;;;;;;;;;;;5073856;28;20380;-74
2023/03/25 16:31:21;;;;;;;;;;;;;;;;;;5073347;28;19975;-74
2023/03/25 16:33:47;;;;;;;;;;;;;;;;;;5071471;28;19977;-74
2023/03/25 16:36:13;;;;;;;;;;;;;;;;;;5073669;28;19932;-74
2023/03/25 16:38:39;;;;;;;;;;;;;;;;;;5072779;28;19928;-76